Flight Track Log - Related Links

Times and Time Zones

All times are in EDT time to prevent confusion due to time zone crossing. See the EJA727 flight status page for this flight to view local times or setup timezone preferences in your user account.

Time Position Orientation Groundspeed Altitude Reporting Facility
EDT Latitude Longitude Course Direction KTS MPH feet Rate Location/Type
Wed 12:59:40 PM 26.4686 -77.1883 274° West 399 459 11,200  Level Miami Center
Wed 01:00:40 PM 26.4744 -77.2811 274° West 357 411 14,300 2,850 Climbing Miami Center
Wed 01:01:40 PM 26.4825 -77.4042 274° West 374 430 16,900 1,850 Climbing Miami Center
Wed 01:02:40 PM 26.4883 -77.5250 273° West 400 460 18,000 550 Climbing Miami Center
Wed 01:03:40 PM 26.4958 -77.6503 274° West 414 476 18,000  Level Miami Center
Wed 01:04:40 PM 26.5036 -77.7736 274° West 414 476 18,000  Level Miami Center
Wed 01:05:40 PM 26.5111 -77.8919 274° West 407 468 18,000  Level Miami Center
Wed 01:06:40 PM 26.5186 -78.0197 274° West 401 461 18,000  Level Miami Center
Wed 01:07:40 PM 26.5258 -78.1500 274° West 401 461 18,000  Level Miami Center
Wed 01:08:40 PM 26.5308 -78.2753 273° West 409 471 18,000  Level Miami Center
Wed 01:09:40 PM 26.5381 -78.4033 274° West 409 471 18,000  Level Miami Center
Wed 01:10:40 PM 26.5428 -78.5311 272° West 410 472 18,000  Level Miami Center
Wed 01:11:40 PM 26.5539 -78.6497 276° West 416 479 18,000  Level Miami Center
Wed 01:12:40 PM 26.5547 -78.7681 270° West 411 473 18,000  Level Miami Center
Wed 01:13:40 PM 26.5342 -78.8908 259° West 406 467 18,000  Level Miami Center
Wed 01:14:40 PM 26.5011 -79.0086 253° West 406 467 18,000  Level Miami Center
Wed 01:15:40 PM 26.4700 -79.1311 254° West 411 473 18,000  Level Miami Center
Wed 01:16:40 PM 26.4389 -79.2536 254° West 411 473 18,000  Level Miami Center
Wed 01:17:40 PM 26.4011 -79.3872 253° West 416 479 18,000  Level Miami Center
Wed 01:18:40 PM 26.3781 -79.5097 258° West 416 479 18,000  Level Miami Center
Wed 01:19:40 PM 26.3967 -79.6283 280° West 395 455 18,000 -231 Level Miami Center
Wed 01:20:24 PM 26.4369 -79.7036 301° West 385 443 17,600 -1,081 Descending Miami Center
Wed 01:21:31 PM 26.4094 -79.8306 256° West 375 432 16,000 -750 Descending Miami Center
Wed 01:22:32 PM 26.3408 -79.9192 229° Southwest 366 421 16,000 -310 Level Miami Center
Wed 01:23:27 PM 26.2744 -79.9917 224° Southwest 363 418 15,400 -983 Descending Miami Center
Wed 01:24:28 PM 26.1881 -80.0333 203° Southwest 343 395 14,100 -1,397 Descending Miami Center
Wed 01:25:23 PM 26.1017 -80.0564 193° South 336 387 12,700 -1,707 Descending Miami Center
Wed 01:26:24 PM 26.0133 -80.0842 196° South 320 368 10,800 -1,770 Descending Miami Center
Wed 01:27:25 PM 25.9558 -80.1381 220° Southwest 294 338 9,100 -1,377 Descending Miami Center
Wed 01:28:26 PM 25.9517 -80.2328 267° West 299 344 8,000 -1,293 Descending Miami Center
Wed 01:29:21 PM 25.9475 -80.3133 267° West 279 321 6,600 -1,918 Descending Miami Center
Wed 01:30:28 PM 25.9372 -80.4031 263° West 274 315 4,100 -1,688 Descending Miami Center
Wed 01:31:29 PM 25.8858 -80.4525 221° Southwest 216 249 3,000 -787 Descending Miami Center
Wed 01:32:30 PM 25.8378 -80.4486 176° South 157 181 2,500 -738 Descending Miami Center
Wed 01:33:31 PM 25.8200 -80.4089 116° Southeast 143 165 1,500 -590 Descending Miami Center
Wed 01:34:32 PM 25.8064 -80.3717 112° Southeast 129 148 1,300 -439 Descending Miami Center
Wed 01:35:34 PM 25.7989 -80.3344 103° East 124 143 600 -677 Descending Miami Center
Wed 01:37:00 PM 25.7954 -80.2901 103° East  Level Estimated
Wed 01:44:00 PM 25.7954 -80.2901 103° East  Level Estimated

Login

Don't have an account? Register now (free) for customized features, flight alerts, and more!